sensor_id;sensor_type;location;lat;lon;timestamp;temperature;humidity
20483;DHT22;10400;53.198;6.592;2023-02-28T00:01:28;5.80;98.00
20483;DHT22;10400;53.198;6.592;2023-02-28T00:03:54;5.80;98.40
20483;DHT22;10400;53.198;6.592;2023-02-28T00:06:19;5.80;98.90
20483;DHT22;10400;53.198;6.592;2023-02-28T00:08:46;5.80;99.50
20483;DHT22;10400;53.198;6.592;2023-02-28T00:11:13;5.80;99.40
20483;DHT22;10400;53.198;6.592;2023-02-28T00:13:45;5.80;99.90
20483;DHT22;10400;53.198;6.592;2023-02-28T00:16:19;5.80;99.90
20483;DHT22;10400;53.198;6.592;2023-02-28T00:18:45;5.80;99.90
20483;DHT22;10400;53.198;6.592;2023-02-28T00:21:10;5.70;99.90
20483;DHT22;10400;53.198;6.592;2023-02-28T00:23:36;5.80;99.90
20483;DHT22;10400;53.198;6.592;2023-02-28T00:26:02;5.80;99.90
20483;DHT22;10400;53.198;6.592;2023-02-28T00:28:28;5.70;99.90
20483;DHT22;10400;53.198;6.592;2023-02-28T00:30:53;5.80;99.90
20483;DHT22;10400;53.198;6.592;2023-02-28T00:33:19;5.80;99.90
20483;DHT22;10400;53.198;6.592;2023-02-28T00:35:45;5.80;99.90
20483;DHT22;10400;53.198;6.592;2023-02-28T00:38:12;5.80;99.90
20483;DHT22;10400;53.198;6.592;2023-02-28T00:40:38;5.80;99.90
20483;DHT22;10400;53.198;6.592;2023-02-28T00:43:04;5.80;99.90
20483;DHT22;10400;53.198;6.592;2023-02-28T00:45:30;5.70;99.90
20483;DHT22;10400;53.198;6.592;2023-02-28T00:47:55;5.80;99.90
20483;DHT22;10400;53.198;6.592;2023-02-28T00:50:21;5.60;99.90
20483;DHT22;10400;53.198;6.592;2023-02-28T00:52:47;5.60;99.90
20483;DHT22;10400;53.198;6.592;2023-02-28T00:55:13;5.70;99.90
20483;DHT22;10400;53.198;6.592;2023-02-28T00:57:39;5.70;99.90
20483;DHT22;10400;53.198;6.592;2023-02-28T01:00:06;5.80;99.90
20483;DHT22;10400;53.198;6.592;2023-02-28T01:02:31;5.80;99.90
20483;DHT22;10400;53.198;6.592;2023-02-28T01:04:57;5.80;99.90
20483;DHT22;10400;53.198;6.592;2023-02-28T01:07:23;5.80;99.90
20483;DHT22;10400;53.198;6.592;2023-02-28T01:09:49;5.90;99.90
20483;DHT22;10400;53.198;6.592;2023-02-28T01:12:15;5.80;99.90
20483;DHT22;10400;53.198;6.592;2023-02-28T01:14:41;5.90;99.90
20483;DHT22;10400;53.198;6.592;2023-02-28T01:17:07;5.80;99.90
20483;DHT22;10400;53.198;6.592;2023-02-28T01:19:32;5.80;99.90
20483;DHT22;10400;53.198;6.592;2023-02-28T01:22:04;5.80;99.90
20483;DHT22;10400;53.198;6.592;2023-02-28T01:24:31;5.80;99.90
20483;DHT22;10400;53.198;6.592;2023-02-28T01:26:57;5.80;99.90
20483;DHT22;10400;53.198;6.592;2023-02-28T01:29:23;5.80;99.90
20483;DHT22;10400;53.198;6.592;2023-02-28T01:31:48;5.80;99.90
20483;DHT22;10400;53.198;6.592;2023-02-28T01:34:14;5.90;99.90
20483;DHT22;10400;53.198;6.592;2023-02-28T01:36:39;5.90;99.90
20483;DHT22;10400;53.198;6.592;2023-02-28T01:39:05;5.90;99.90
20483;DHT22;10400;53.198;6.592;2023-02-28T01:41:33;5.90;99.90
20483;DHT22;10400;53.198;6.592;2023-02-28T01:47:02;5.80;99.90
20483;DHT22;10400;53.198;6.592;2023-02-28T01:49:28;5.90;99.90
20483;DHT22;10400;53.198;6.592;2023-02-28T01:51:55;5.80;99.90
20483;DHT22;10400;53.198;6.592;2023-02-28T01:54:30;5.90;99.90
20483;DHT22;10400;53.198;6.592;2023-02-28T01:57:06;5.90;99.90
20483;DHT22;10400;53.198;6.592;2023-02-28T02:02:02;5.80;99.90
20483;DHT22;10400;53.198;6.592;2023-02-28T02:04:34;5.90;99.90
20483;DHT22;10400;53.198;6.592;2023-02-28T02:07:02;5.80;99.90
20483;DHT22;10400;53.198;6.592;2023-02-28T02:09:28;5.90;99.90
20483;DHT22;10400;53.198;6.592;2023-02-28T02:11:55;5.80;99.90
20483;DHT22;10400;53.198;6.592;2023-02-28T02:17:35;5.80;99.90
20483;DHT22;10400;53.198;6.592;2023-02-28T02:31:32;5.80;99.90
20483;DHT22;10400;53.198;6.592;2023-02-28T02:37:29;5.80;99.90
20483;DHT22;10400;53.198;6.592;2023-02-28T02:40:03;5.80;99.90
20483;DHT22;10400;53.198;6.592;2023-02-28T02:42:47;5.80;99.90
20483;DHT22;10400;53.198;6.592;2023-02-28T02:45:35;5.80;99.90
20483;DHT22;10400;53.198;6.592;2023-02-28T02:48:06;5.80;99.90
20483;DHT22;10400;53.198;6.592;2023-02-28T02:50:38;5.80;99.90
20483;DHT22;10400;53.198;6.592;2023-02-28T02:53:05;5.90;99.90
20483;DHT22;10400;53.198;6.592;2023-02-28T02:55:34;5.80;99.90
20483;DHT22;10400;53.198;6.592;2023-02-28T02:58:05;5.80;99.90
20483;DHT22;10400;53.198;6.592;2023-02-28T03:00:38;5.80;99.90
20483;DHT22;10400;53.198;6.592;2023-02-28T03:03:07;5.80;99.90
20483;DHT22;10400;53.198;6.592;2023-02-28T03:05:44;5.80;99.90
20483;DHT22;10400;53.198;6.592;2023-02-28T03:08:11;5.90;99.90
20483;DHT22;10400;53.198;6.592;2023-02-28T03:10:46;6.00;99.90
20483;DHT22;10400;53.198;6.592;2023-02-28T03:21:28;5.80;99.90
20483;DHT22;10400;53.198;6.592;2023-02-28T03:24:02;5.80;99.90
20483;DHT22;10400;53.198;6.592;2023-02-28T03:26:31;5.70;99.90
20483;DHT22;10400;53.198;6.592;2023-02-28T03:29:19;5.70;99.90
20483;DHT22;10400;53.198;6.592;2023-02-28T03:31:54;5.60;99.90
20483;DHT22;10400;53.198;6.592;2023-02-28T03:34:31;5.50;99.90
20483;DHT22;10400;53.198;6.592;2023-02-28T03:37:02;5.50;99.90
20483;DHT22;10400;53.198;6.592;2023-02-28T03:42:07;5.50;99.90
20483;DHT22;10400;53.198;6.592;2023-02-28T03:44:44;5.50;99.90
20483;DHT22;10400;53.198;6.592;2023-02-28T03:47:12;5.50;99.90
20483;DHT22;10400;53.198;6.592;2023-02-28T03:49:50;5.40;99.90
20483;DHT22;10400;53.198;6.592;2023-02-28T03:52:18;5.50;99.90
20483;DHT22;10400;53.198;6.592;2023-02-28T03:54:49;5.30;99.90
20483;DHT22;10400;53.198;6.592;2023-02-28T04:00:14;5.20;99.90
20483;DHT22;10400;53.198;6.592;2023-02-28T04:02:43;5.30;99.90
20483;DHT22;10400;53.198;6.592;2023-02-28T04:05:09;5.20;99.90
20483;DHT22;10400;53.198;6.592;2023-02-28T04:07:35;5.20;99.90
20483;DHT22;10400;53.198;6.592;2023-02-28T04:10:00;5.20;99.90
20483;DHT22;10400;53.198;6.592;2023-02-28T04:12:26;5.20;99.90
20483;DHT22;10400;53.198;6.592;2023-02-28T04:14:52;5.20;99.90
20483;DHT22;10400;53.198;6.592;2023-02-28T04:17:17;5.10;99.90
20483;DHT22;10400;53.198;6.592;2023-02-28T04:19:44;5.20;99.90
20483;DHT22;10400;53.198;6.592;2023-02-28T04:22:10;5.00;99.90
20483;DHT22;10400;53.198;6.592;2023-02-28T04:24:36;5.00;99.90
20483;DHT22;10400;53.198;6.592;2023-02-28T04:27:02;5.10;99.90
20483;DHT22;10400;53.198;6.592;2023-02-28T04:29:32;5.00;99.90
20483;DHT22;10400;53.198;6.592;2023-02-28T04:31:58;4.90;99.90
20483;DHT22;10400;53.198;6.592;2023-02-28T04:34:26;5.00;99.90
20483;DHT22;10400;53.198;6.592;2023-02-28T04:36:52;4.90;99.90
20483;DHT22;10400;53.198;6.592;2023-02-28T04:39:21;4.80;99.90
20483;DHT22;10400;53.198;6.592;2023-02-28T04:41:47;4.80;99.90
20483;DHT22;10400;53.198;6.592;2023-02-28T04:44:13;4.90;99.90
20483;DHT22;10400;53.198;6.592;2023-02-28T04:46:39;4.80;99.90
20483;DHT22;10400;53.198;6.592;2023-02-28T04:49:04;4.80;99.90
20483;DHT22;10400;53.198;6.592;2023-02-28T04:51:30;4.80;99.90
20483;DHT22;10400;53.198;6.592;2023-02-28T04:53:56;4.70;99.90
20483;DHT22;10400;53.198;6.592;2023-02-28T04:56:22;4.70;99.90
20483;DHT22;10400;53.198;6.592;2023-02-28T04:58:48;4.70;99.90
20483;DHT22;10400;53.198;6.592;2023-02-28T05:01:26;4.60;99.90
20483;DHT22;10400;53.198;6.592;2023-02-28T05:03:54;4.70;99.90
20483;DHT22;10400;53.198;6.592;2023-02-28T05:06:23;4.60;99.90
20483;DHT22;10400;53.198;6.592;2023-02-28T05:08:49;4.60;99.90
20483;DHT22;10400;53.198;6.592;2023-02-28T05:11:28;4.70;99.90
20483;DHT22;10400;53.198;6.592;2023-02-28T05:14:05;4.70;99.90
20483;DHT22;10400;53.198;6.592;2023-02-28T05:16:31;4.60;99.90
20483;DHT22;10400;53.198;6.592;2023-02-28T05:18:57;4.70;99.90
20483;DHT22;10400;53.198;6.592;2023-02-28T05:21:36;4.70;99.90
20483;DHT22;10400;53.198;6.592;2023-02-28T05:24:09;4.60;99.90
20483;DHT22;10400;53.198;6.592;2023-02-28T05:26:37;4.50;99.90
20483;DHT22;10400;53.198;6.592;2023-02-28T05:29:03;4.50;99.90
20483;DHT22;10400;53.198;6.592;2023-02-28T05:31:28;4.50;99.90
20483;DHT22;10400;53.198;6.592;2023-02-28T05:33:54;4.40;99.90
20483;DHT22;10400;53.198;6.592;2023-02-28T05:36:20;4.40;99.90
20483;DHT22;10400;53.198;6.592;2023-02-28T05:38:47;4.40;99.90
20483;DHT22;10400;53.198;6.592;2023-02-28T05:41:14;4.40;99.90
20483;DHT22;10400;53.198;6.592;2023-02-28T05:43:39;4.40;99.90
20483;DHT22;10400;53.198;6.592;2023-02-28T05:46:06;4.40;99.90
20483;DHT22;10400;53.198;6.592;2023-02-28T05:48:34;4.40;99.90
20483;DHT22;10400;53.198;6.592;2023-02-28T05:51:00;4.40;99.90
20483;DHT22;10400;53.198;6.592;2023-02-28T05:53:26;4.50;99.90
20483;DHT22;10400;53.198;6.592;2023-02-28T05:55:52;4.50;99.90
20483;DHT22;10400;53.198;6.592;2023-02-28T05:58:18;4.50;99.90
20483;DHT22;10400;53.198;6.592;2023-02-28T06:00:44;4.40;99.90
20483;DHT22;10400;53.198;6.592;2023-02-28T06:03:11;4.40;99.90
20483;DHT22;10400;53.198;6.592;2023-02-28T06:05:36;4.40;99.90
20483;DHT22;10400;53.198;6.592;2023-02-28T06:08:04;4.50;99.90
20483;DHT22;10400;53.198;6.592;2023-02-28T06:10:32;4.50;99.90
20483;DHT22;10400;53.198;6.592;2023-02-28T06:13:02;4.40;99.90
20483;DHT22;10400;53.198;6.592;2023-02-28T06:15:29;4.40;99.90
20483;DHT22;10400;53.198;6.592;2023-02-28T06:17:55;4.30;99.90
20483;DHT22;10400;53.198;6.592;2023-02-28T06:20:25;4.30;99.90
20483;DHT22;10400;53.198;6.592;2023-02-28T06:22:57;4.30;99.90
20483;DHT22;10400;53.198;6.592;2023-02-28T06:25:26;4.40;99.90
20483;DHT22;10400;53.198;6.592;2023-02-28T06:27:53;4.30;99.90
20483;DHT22;10400;53.198;6.592;2023-02-28T06:30:18;4.30;99.90
20483;DHT22;10400;53.198;6.592;2023-02-28T06:32:52;4.30;99.90
20483;DHT22;10400;53.198;6.592;2023-02-28T06:35:18;4.30;99.90
20483;DHT22;10400;53.198;6.592;2023-02-28T06:37:45;4.30;99.90
20483;DHT22;10400;53.198;6.592;2023-02-28T06:40:12;4.30;99.90
20483;DHT22;10400;53.198;6.592;2023-02-28T06:42:38;4.20;99.90
20483;DHT22;10400;53.198;6.592;2023-02-28T06:45:04;4.30;99.90
20483;DHT22;10400;53.198;6.592;2023-02-28T06:47:35;4.20;99.90
20483;DHT22;10400;53.198;6.592;2023-02-28T06:50:02;4.20;99.90
20483;DHT22;10400;53.198;6.592;2023-02-28T06:52:27;4.20;99.90
20483;DHT22;10400;53.198;6.592;2023-02-28T06:54:53;4.10;99.90
20483;DHT22;10400;53.198;6.592;2023-02-28T06:57:29;4.10;99.90
20483;DHT22;10400;53.198;6.592;2023-02-28T06:59:57;4.10;99.90
20483;DHT22;10400;53.198;6.592;2023-02-28T07:02:23;4.10;99.90
20483;DHT22;10400;53.198;6.592;2023-02-28T07:04:49;4.10;99.90
20483;DHT22;10400;53.198;6.592;2023-02-28T07:07:14;4.00;99.90
20483;DHT22;10400;53.198;6.592;2023-02-28T07:09:40;4.10;99.90
20483;DHT22;10400;53.198;6.592;2023-02-28T07:12:06;4.10;99.90
20483;DHT22;10400;53.198;6.592;2023-02-28T07:14:31;4.20;99.90
20483;DHT22;10400;53.198;6.592;2023-02-28T07:16:57;4.10;99.90
20483;DHT22;10400;53.198;6.592;2023-02-28T07:19:23;4.10;99.90
20483;DHT22;10400;53.198;6.592;2023-02-28T07:21:48;4.10;99.90
20483;DHT22;10400;53.198;6.592;2023-02-28T07:24:14;4.20;99.90
20483;DHT22;10400;53.198;6.592;2023-02-28T07:26:41;4.20;99.90
20483;DHT22;10400;53.198;6.592;2023-02-28T07:29:07;4.20;99.90
20483;DHT22;10400;53.198;6.592;2023-02-28T07:31:32;4.10;99.90
20483;DHT22;10400;53.198;6.592;2023-02-28T07:33:58;4.10;99.90
20483;DHT22;10400;53.198;6.592;2023-02-28T07:36:24;4.10;99.90
20483;DHT22;10400;53.198;6.592;2023-02-28T07:38:49;4.10;99.90
20483;DHT22;10400;53.198;6.592;2023-02-28T07:41:16;4.00;99.90
20483;DHT22;10400;53.198;6.592;2023-02-28T07:43:42;4.00;99.90
20483;DHT22;10400;53.198;6.592;2023-02-28T07:46:11;4.00;99.90
20483;DHT22;10400;53.198;6.592;2023-02-28T07:48:38;4.10;99.90
20483;DHT22;10400;53.198;6.592;2023-02-28T07:51:04;4.20;99.90
20483;DHT22;10400;53.198;6.592;2023-02-28T07:53:30;4.10;99.90
20483;DHT22;10400;53.198;6.592;2023-02-28T07:55:57;4.10;99.90
20483;DHT22;10400;53.198;6.592;2023-02-28T07:58:23;4.20;99.90
20483;DHT22;10400;53.198;6.592;2023-02-28T08:00:49;4.30;99.90
20483;DHT22;10400;53.198;6.592;2023-02-28T08:03:16;4.30;99.90
20483;DHT22;10400;53.198;6.592;2023-02-28T08:05:42;4.40;99.90
20483;DHT22;10400;53.198;6.592;2023-02-28T08:08:08;4.40;99.90
20483;DHT22;10400;53.198;6.592;2023-02-28T08:10:34;4.50;99.90
20483;DHT22;10400;53.198;6.592;2023-02-28T08:12:59;4.50;99.90
20483;DHT22;10400;53.198;6.592;2023-02-28T08:15:25;4.60;99.90
20483;DHT22;10400;53.198;6.592;2023-02-28T08:17:52;4.70;99.90
20483;DHT22;10400;53.198;6.592;2023-02-28T08:20:17;4.80;99.90
20483;DHT22;10400;53.198;6.592;2023-02-28T08:22:43;4.80;99.90
20483;DHT22;10400;53.198;6.592;2023-02-28T08:25:09;4.80;99.90
20483;DHT22;10400;53.198;6.592;2023-02-28T08:27:35;4.90;99.90
20483;DHT22;10400;53.198;6.592;2023-02-28T08:30:02;4.90;99.90
20483;DHT22;10400;53.198;6.592;2023-02-28T08:32:28;5.00;99.90
20483;DHT22;10400;53.198;6.592;2023-02-28T08:34:54;5.10;99.90
20483;DHT22;10400;53.198;6.592;2023-02-28T08:37:19;5.20;99.90
20483;DHT22;10400;53.198;6.592;2023-02-28T08:39:45;5.20;99.90
20483;DHT22;10400;53.198;6.592;2023-02-28T08:42:11;5.20;99.90
20483;DHT22;10400;53.198;6.592;2023-02-28T08:44:37;5.10;99.90
20483;DHT22;10400;53.198;6.592;2023-02-28T08:47:02;5.20;99.90
20483;DHT22;10400;53.198;6.592;2023-02-28T08:49:28;5.20;99.90
20483;DHT22;10400;53.198;6.592;2023-02-28T08:51:54;5.30;99.90
20483;DHT22;10400;53.198;6.592;2023-02-28T08:54:22;5.20;99.90
20483;DHT22;10400;53.198;6.592;2023-02-28T08:56:48;5.20;99.90
20483;DHT22;10400;53.198;6.592;2023-02-28T08:59:14;5.20;99.90
20483;DHT22;10400;53.198;6.592;2023-02-28T09:01:40;5.30;99.90
20483;DHT22;10400;53.198;6.592;2023-02-28T09:04:07;5.40;99.90
20483;DHT22;10400;53.198;6.592;2023-02-28T09:06:34;5.40;98.80
20483;DHT22;10400;53.198;6.592;2023-02-28T09:09:01;5.50;98.40
20483;DHT22;10400;53.198;6.592;2023-02-28T09:11:27;5.50;95.40
20483;DHT22;10400;53.198;6.592;2023-02-28T09:13:53;5.40;88.20
20483;DHT22;10400;53.198;6.592;2023-02-28T09:16:21;5.50;94.50
20483;DHT22;10400;53.198;6.592;2023-02-28T09:18:47;5.60;94.10
20483;DHT22;10400;53.198;6.592;2023-02-28T09:21:16;5.60;87.30
20483;DHT22;10400;53.198;6.592;2023-02-28T09:23:43;5.70;81.00
20483;DHT22;10400;53.198;6.592;2023-02-28T09:26:28;5.50;59.30
20483;DHT22;10400;53.198;6.592;2023-02-28T09:28:54;5.60;67.80
20483;DHT22;10400;53.198;6.592;2023-02-28T09:31:23;5.70;66.50
20483;DHT22;10400;53.198;6.592;2023-02-28T09:33:50;5.80;60.70
20483;DHT22;10400;53.198;6.592;2023-02-28T09:36:16;5.70;48.30
20483;DHT22;10400;53.198;6.592;2023-02-28T09:38:42;5.80;51.00
20483;DHT22;10400;53.198;6.592;2023-02-28T09:41:14;5.80;39.20
20483;DHT22;10400;53.198;6.592;2023-02-28T09:43:44;5.90;36.10
20483;DHT22;10400;53.198;6.592;2023-02-28T09:46:33;5.90;30.30
20483;DHT22;10400;53.198;6.592;2023-02-28T09:49:02;5.80;21.80
20483;DHT22;10400;53.198;6.592;2023-02-28T09:51:59;5.80;12.20
20483;DHT22;10400;53.198;6.592;2023-02-28T09:54:29;5.70;4.60
20483;DHT22;10400;53.198;6.592;2023-02-28T10:09:54;6.20;1.00
20483;DHT22;10400;53.198;6.592;2023-02-28T10:12:21;6.40;1.00
20483;DHT22;10400;53.198;6.592;2023-02-28T10:14:50;6.50;1.00
20483;DHT22;10400;53.198;6.592;2023-02-28T10:17:20;6.50;1.00
20483;DHT22;10400;53.198;6.592;2023-02-28T10:22:33;6.30;1.00
20483;DHT22;10400;53.198;6.592;2023-02-28T10:24:59;6.40;1.00
20483;DHT22;10400;53.198;6.592;2023-02-28T10:27:34;6.40;1.00
20483;DHT22;10400;53.198;6.592;2023-02-28T10:30:01;6.50;1.00
20483;DHT22;10400;53.198;6.592;2023-02-28T10:32:31;6.60;1.00
20483;DHT22;10400;53.198;6.592;2023-02-28T10:37:40;6.70;1.00
20483;DHT22;10400;53.198;6.592;2023-02-28T10:40:28;6.90;1.00
20483;DHT22;10400;53.198;6.592;2023-02-28T10:43:05;6.70;1.00
20483;DHT22;10400;53.198;6.592;2023-02-28T10:45:35;6.80;1.00
20483;DHT22;10400;53.198;6.592;2023-02-28T10:48:30;6.80;1.00
20483;DHT22;10400;53.198;6.592;2023-02-28T10:50:56;6.80;1.00
20483;DHT22;10400;53.198;6.592;2023-02-28T11:01:45;6.90;1.00
20483;DHT22;10400;53.198;6.592;2023-02-28T11:04:19;7.10;1.00
20483;DHT22;10400;53.198;6.592;2023-02-28T11:06:47;7.10;1.00
20483;DHT22;10400;53.198;6.592;2023-02-28T11:09:27;7.10;1.00
20483;DHT22;10400;53.198;6.592;2023-02-28T11:11:54;7.10;1.00
20483;DHT22;10400;53.198;6.592;2023-02-28T11:14:32;7.20;1.00
20483;DHT22;10400;53.198;6.592;2023-02-28T11:17:11;7.10;99.90
20483;DHT22;10400;53.198;6.592;2023-02-28T11:19:43;7.20;99.90
20483;DHT22;10400;53.198;6.592;2023-02-28T11:22:09;7.40;99.90
20483;DHT22;10400;53.198;6.592;2023-02-28T11:24:49;7.50;99.90
20483;DHT22;10400;53.198;6.592;2023-02-28T11:29:51;7.60;99.90
20483;DHT22;10400;53.198;6.592;2023-02-28T11:32:25;7.50;99.90
20483;DHT22;10400;53.198;6.592;2023-02-28T11:35:53;7.40;99.90
20483;DHT22;10400;53.198;6.592;2023-02-28T11:38:12;7.60;99.90
20483;DHT22;10400;53.198;6.592;2023-02-28T11:40:49;7.80;99.90
20483;DHT22;10400;53.198;6.592;2023-02-28T11:43:46;7.60;99.90
20483;DHT22;10400;53.198;6.592;2023-02-28T11:51:34;7.80;1.00
20483;DHT22;10400;53.198;6.592;2023-02-28T12:05:53;8.10;1.00
20483;DHT22;10400;53.198;6.592;2023-02-28T12:14:00;8.50;1.00
20483;DHT22;10400;53.198;6.592;2023-02-28T12:27:14;8.60;99.90
20483;DHT22;10400;53.198;6.592;2023-02-28T12:29:48;8.60;99.90
20483;DHT22;10400;53.198;6.592;2023-02-28T12:32:23;8.70;1.00
20483;DHT22;10400;53.198;6.592;2023-02-28T12:35:22;8.70;99.90
20483;DHT22;10400;53.198;6.592;2023-02-28T12:38:19;8.70;99.90
20483;DHT22;10400;53.198;6.592;2023-02-28T12:41:11;8.70;1.00
20483;DHT22;10400;53.198;6.592;2023-02-28T12:43:43;8.70;99.90
20483;DHT22;10400;53.198;6.592;2023-02-28T12:46:21;8.60;9.70
20483;DHT22;10400;53.198;6.592;2023-02-28T12:48:55;8.70;99.90
20483;DHT22;10400;53.198;6.592;2023-02-28T12:51:23;8.70;99.90
20483;DHT22;10400;53.198;6.592;2023-02-28T12:59:10;8.70;6.90
20483;DHT22;10400;53.198;6.592;2023-02-28T13:04:32;8.70;99.90
20483;DHT22;10400;53.198;6.592;2023-02-28T13:07:10;8.60;1.00
20483;DHT22;10400;53.198;6.592;2023-02-28T13:09:38;8.70;1.00
20483;DHT22;10400;53.198;6.592;2023-02-28T13:12:15;8.70;99.90
20483;DHT22;10400;53.198;6.592;2023-02-28T13:14:42;8.60;1.00
20483;DHT22;10400;53.198;6.592;2023-02-28T13:19:58;8.20;1.00
20483;DHT22;10400;53.198;6.592;2023-02-28T13:22:43;8.10;99.90
20483;DHT22;10400;53.198;6.592;2023-02-28T13:27:49;7.90;99.90
20483;DHT22;10400;53.198;6.592;2023-02-28T13:36:26;8.50;99.90
20483;DHT22;10400;53.198;6.592;2023-02-28T13:41:47;8.70;99.90
20483;DHT22;10400;53.198;6.592;2023-02-28T13:44:21;8.60;1.00
20483;DHT22;10400;53.198;6.592;2023-02-28T13:54:58;8.90;1.00
20483;DHT22;10400;53.198;6.592;2023-02-28T14:00:04;8.70;99.90
20483;DHT22;10400;53.198;6.592;2023-02-28T14:05:22;8.70;1.00
20483;DHT22;10400;53.198;6.592;2023-02-28T14:07:57;8.70;1.00
20483;DHT22;10400;53.198;6.592;2023-02-28T14:11:02;8.60;99.90
20483;DHT22;10400;53.198;6.592;2023-02-28T14:13:39;8.50;1.00
20483;DHT22;10400;53.198;6.592;2023-02-28T14:16:26;8.60;99.90
20483;DHT22;10400;53.198;6.592;2023-02-28T14:19:05;8.60;99.90
20483;DHT22;10400;53.198;6.592;2023-02-28T14:21:38;8.50;1.00
20483;DHT22;10400;53.198;6.592;2023-02-28T14:37:53;9.20;49.30
20483;DHT22;10400;53.198;6.592;2023-02-28T14:40:28;9.30;99.90
20483;DHT22;10400;53.198;6.592;2023-02-28T14:43:00;9.20;99.90
20483;DHT22;10400;53.198;6.592;2023-02-28T14:45:31;9.10;1.00
20483;DHT22;10400;53.198;6.592;2023-02-28T14:47:58;8.90;99.90
20483;DHT22;10400;53.198;6.592;2023-02-28T14:50:35;8.80;99.90
20483;DHT22;10400;53.198;6.592;2023-02-28T14:53:02;8.70;1.00
20483;DHT22;10400;53.198;6.592;2023-02-28T14:55:30;8.50;1.00
20483;DHT22;10400;53.198;6.592;2023-02-28T14:57:59;8.40;1.00
20483;DHT22;10400;53.198;6.592;2023-02-28T15:00:26;8.40;1.00
20483;DHT22;10400;53.198;6.592;2023-02-28T15:02:54;8.20;99.90
20483;DHT22;10400;53.198;6.592;2023-02-28T15:05:25;8.10;99.90
20483;DHT22;10400;53.198;6.592;2023-02-28T15:08:14;8.00;1.00
20483;DHT22;10400;53.198;6.592;2023-02-28T15:10:43;7.90;99.90
20483;DHT22;10400;53.198;6.592;2023-02-28T15:13:14;7.90;1.00
20483;DHT22;10400;53.198;6.592;2023-02-28T15:16:02;8.00;38.60
20483;DHT22;10400;53.198;6.592;2023-02-28T15:18:42;8.10;1.00
20483;DHT22;10400;53.198;6.592;2023-02-28T15:21:21;8.20;99.90
20483;DHT22;10400;53.198;6.592;2023-02-28T15:24:06;8.30;99.90
20483;DHT22;10400;53.198;6.592;2023-02-28T15:26:44;8.40;99.90
20483;DHT22;10400;53.198;6.592;2023-02-28T15:29:17;8.40;99.90
20483;DHT22;10400;53.198;6.592;2023-02-28T15:31:46;8.40;99.90
20483;DHT22;10400;53.198;6.592;2023-02-28T15:34:41;8.40;1.00
20483;DHT22;10400;53.198;6.592;2023-02-28T15:42:42;8.10;1.00
20483;DHT22;10400;53.198;6.592;2023-02-28T15:46:00;8.10;99.90
20483;DHT22;10400;53.198;6.592;2023-02-28T15:48:30;8.10;99.90
20483;DHT22;10400;53.198;6.592;2023-02-28T15:51:02;8.10;99.90
20483;DHT22;10400;53.198;6.592;2023-02-28T15:53:32;8.10;1.00
20483;DHT22;10400;53.198;6.592;2023-02-28T15:56:04;8.00;1.00
20483;DHT22;10400;53.198;6.592;2023-02-28T15:58:35;8.10;99.90
20483;DHT22;10400;53.198;6.592;2023-02-28T16:01:16;8.00;99.90
20483;DHT22;10400;53.198;6.592;2023-02-28T16:03:51;8.00;1.00
20483;DHT22;10400;53.198;6.592;2023-02-28T16:06:23;8.10;1.00
20483;DHT22;10400;53.198;6.592;2023-02-28T16:08:50;8.10;99.90
20483;DHT22;10400;53.198;6.592;2023-02-28T16:11:17;8.00;1.00
20483;DHT22;10400;53.198;6.592;2023-02-28T16:13:42;8.00;1.00
20483;DHT22;10400;53.198;6.592;2023-02-28T16:16:08;7.90;1.00
20483;DHT22;10400;53.198;6.592;2023-02-28T16:18:39;7.90;18.70
20483;DHT22;10400;53.198;6.592;2023-02-28T16:21:05;8.00;99.90
20483;DHT22;10400;53.198;6.592;2023-02-28T16:23:31;7.80;99.90
20483;DHT22;10400;53.198;6.592;2023-02-28T16:25:56;7.70;99.90
20483;DHT22;10400;53.198;6.592;2023-02-28T16:28:30;7.70;41.80
20483;DHT22;10400;53.198;6.592;2023-02-28T16:30:59;7.70;17.30
20483;DHT22;10400;53.198;6.592;2023-02-28T16:33:24;7.70;99.90
20483;DHT22;10400;53.198;6.592;2023-02-28T16:35:50;7.60;99.90
20483;DHT22;10400;53.198;6.592;2023-02-28T16:38:16;7.40;99.90
20483;DHT22;10400;53.198;6.592;2023-02-28T16:40:41;7.40;99.90
20483;DHT22;10400;53.198;6.592;2023-02-28T16:43:16;7.30;1.00
20483;DHT22;10400;53.198;6.592;2023-02-28T16:45:43;7.20;1.00
20483;DHT22;10400;53.198;6.592;2023-02-28T16:48:16;7.10;1.00
20483;DHT22;10400;53.198;6.592;2023-02-28T16:50:42;7.10;1.00
20483;DHT22;10400;53.198;6.592;2023-02-28T16:53:08;7.10;1.00
20483;DHT22;10400;53.198;6.592;2023-02-28T16:55:34;7.00;1.00
20483;DHT22;10400;53.198;6.592;2023-02-28T16:58:01;7.00;1.00
20483;DHT22;10400;53.198;6.592;2023-02-28T17:00:29;6.90;1.00
20483;DHT22;10400;53.198;6.592;2023-02-28T17:02:56;6.80;1.00
20483;DHT22;10400;53.198;6.592;2023-02-28T17:05:23;6.70;1.00
20483;DHT22;10400;53.198;6.592;2023-02-28T17:07:49;6.60;49.10
20483;DHT22;10400;53.198;6.592;2023-02-28T17:10:18;6.50;99.90
20483;DHT22;10400;53.198;6.592;2023-02-28T17:12:47;6.40;99.90
20483;DHT22;10400;53.198;6.592;2023-02-28T17:15:14;6.30;99.90
20483;DHT22;10400;53.198;6.592;2023-02-28T17:17:41;6.30;99.90
20483;DHT22;10400;53.198;6.592;2023-02-28T17:20:15;6.30;99.90
20483;DHT22;10400;53.198;6.592;2023-02-28T17:22:41;6.20;99.90
20483;DHT22;10400;53.198;6.592;2023-02-28T17:25:08;6.10;99.90
20483;DHT22;10400;53.198;6.592;2023-02-28T17:27:34;6.10;99.90
20483;DHT22;10400;53.198;6.592;2023-02-28T17:30:00;6.00;99.90
20483;DHT22;10400;53.198;6.592;2023-02-28T17:32:26;5.90;99.90
20483;DHT22;10400;53.198;6.592;2023-02-28T17:34:53;5.90;99.90
20483;DHT22;10400;53.198;6.592;2023-02-28T17:37:19;5.80;99.90
20483;DHT22;10400;53.198;6.592;2023-02-28T17:39:47;5.70;99.90
20483;DHT22;10400;53.198;6.592;2023-02-28T17:42:13;5.70;99.90
20483;DHT22;10400;53.198;6.592;2023-02-28T17:44:38;5.60;99.90
20483;DHT22;10400;53.198;6.592;2023-02-28T17:47:04;5.60;1.00
20483;DHT22;10400;53.198;6.592;2023-02-28T17:49:30;5.50;1.00
20483;DHT22;10400;53.198;6.592;2023-02-28T17:51:55;5.50;1.00
20483;DHT22;10400;53.198;6.592;2023-02-28T17:54:21;5.40;1.00
20483;DHT22;10400;53.198;6.592;2023-02-28T17:56:47;5.40;1.00
20483;DHT22;10400;53.198;6.592;2023-02-28T17:59:13;5.40;1.00
20483;DHT22;10400;53.198;6.592;2023-02-28T18:01:39;5.40;1.00
20483;DHT22;10400;53.198;6.592;2023-02-28T18:04:04;5.30;1.00
20483;DHT22;10400;53.198;6.592;2023-02-28T18:06:50;5.20;1.00
20483;DHT22;10400;53.198;6.592;2023-02-28T18:09:22;5.20;1.00
20483;DHT22;10400;53.198;6.592;2023-02-28T18:11:52;5.10;1.00
20483;DHT22;10400;53.198;6.592;2023-02-28T18:14:19;5.10;1.00
20483;DHT22;10400;53.198;6.592;2023-02-28T18:16:46;5.10;1.00
20483;DHT22;10400;53.198;6.592;2023-02-28T18:19:12;5.10;1.00
20483;DHT22;10400;53.198;6.592;2023-02-28T18:21:46;5.10;1.00
20483;DHT22;10400;53.198;6.592;2023-02-28T18:24:12;5.00;1.00
20483;DHT22;10400;53.198;6.592;2023-02-28T18:26:39;4.90;1.00
20483;DHT22;10400;53.198;6.592;2023-02-28T18:29:05;4.90;1.00
20483;DHT22;10400;53.198;6.592;2023-02-28T18:31:31;5.00;1.00
20483;DHT22;10400;53.198;6.592;2023-02-28T18:33:58;5.00;1.00
20483;DHT22;10400;53.198;6.592;2023-02-28T18:36:24;5.00;1.00
20483;DHT22;10400;53.198;6.592;2023-02-28T18:38:50;5.00;1.00
20483;DHT22;10400;53.198;6.592;2023-02-28T18:41:18;4.90;1.00